New Orleans, LA (70127)

2:19 AM CST on December 20, 2014 (GMT -0600)
gentilly terrace 6$ | Change Station
CLOSE
Current Station
Personal Weather Station
Location: New Orleans, LA
Elevation: 13 ft
Nearby Weather Stations

Elev 13 ft 30.01 °N, 90.06 °W | Updated 1 minute ago

Rain
Rain
51.9 °F
Feels Like 51.9 °F
N
2.0
Wind Variable Wind from ENE
Gusts 0.0 mph

Today
High -- | Low -- °F
--% Chance of Precip.
Yesterday
High -- | Low -- °F
Precip. -- in
6:51 AM 5:03 PM
Waning Crescent, 4% visible
Pressure 30.07 in
Visibility 4.0 miles
Clouds Overcast 400 ft
Dew Point 51 °F
Humidity 97%
Rainfall 0.12 in
Snow Depth Not available.
UV 0 out of 12
Pollen .60 out of 12
Air Quality Not available.
Flu Activity Not available.
SPECI KNEW 200812Z AUTO 06012KT 4SM BR OVC004 12/10 A3007 RMK AO2 RAB0757E11 P0001 T01170100 TSNO

More Conditions Fewer Conditions

Pressure 30.07 in
Visibility 4.0 miles
Clouds Overcast 400 ft
Dew Point 51 °F
Humidity 97%
Rainfall 0.12 in
Snow Depth Not available.
UV 0 out of 12
Pollen .60 out of 12
Air Quality Not available.
Flu Activity Not available.
SPECI KNEW 200812Z AUTO 06012KT 4SM BR OVC004 12/10 A3007 RMK AO2 RAB0757E11 P0001 T01170100 TSNO

More Conditions Fewer Conditions

10-Day Weather Forecast

Almanac

Astronomy

Dec. 20, 2014 Rise Set
Actual Time
Civil Twilight
Nautical Twilight
Astronomical Twilight
Moon
Length of Visible Light
Length of Day
Tomorrow will be .
, % of the Moon is Illuminated

Today's Extremes

State Highs State Lows

Community

WunderPhotos

Upload Photos

1,779,146 photos uploaded!

WunderBlogs® & News

Nearby

Air Quality

  Air Quality AQ Index Pollutant
Not available.

Snow Depth

Station Depth Elevation

Earthquake Activity

City Distance Mag. Time & Date
Minimum magnitude displayed is 2.5.

Coastal Water Temperatures

Place Temperature

Nearby Weather Stations